Abiquiu, NM

12:34 PM MDT on September 21, 2014 (GMT -0600)
Santa Fe Municipal | Change Station
CLOSE
Current Station
Airport
Location: Santa Fe,
Elevation: 6345 ft
Nearby Weather Stations

Elev 6345 ft 35.62 °N, 106.09 °W | Updated 41 minutes ago

Partly Cloudy
Partly Cloudy
76 °F
Feels Like 76 °F
N
22
Wind Variable Wind from SE
Gusts 31 mph

Today
High -- | Low -- °F
--% Chance of Precip.
Yesterday
High -- | Low -- °F
Precip. -- in
6:52 AM 7:03 PM
Waning Crescent, 6% visible
Pressure 30.06 in
Visibility 10.0 miles
Clouds Few 6000 ft
Dew Point 47 °F
Humidity 36%
Rainfall 0.00 in
Snow Depth 1 in , 1 in , 1 in
UV 8 out of 12
Pollen 6.70 out of 12
Air Quality Not available.
Flu Activity Not available.
METAR KSAF 211753Z 14019G27KT 10SM FEW060 24/08 A3037 RMK AO2 PK WND 13028/1710 SLP178 T02440083 10256 20122 58003

More Conditions Fewer Conditions

Pressure 30.06 in
Visibility 10.0 miles
Clouds Few 6000 ft
Dew Point 47 °F
Humidity 36%
Rainfall 0.00 in
Snow Depth 1 in , 1 in , 1 in
UV 8 out of 12
Pollen 6.70 out of 12
Air Quality Not available.
Flu Activity Not available.
METAR KSAF 211753Z 14019G27KT 10SM FEW060 24/08 A3037 RMK AO2 PK WND 13028/1710 SLP178 T02440083 10256 20122 58003

More Conditions Fewer Conditions

10-Day Weather Forecast

Almanac

Astronomy

Sep. 21, 2014 Rise Set
Actual Time 6:52 AM MDT 7:03 PM MDT
Civil Twilight 6:26 AM MDT 7:28 PM MDT
Nautical Twilight 5:56 AM MDT 7:58 PM MDT
Astronomical Twilight 5:26 AM MDT 8:29 PM MDT
Moon 4:31 AM MDT 5:38 PM MDT
Length of Visible Light 13h 02m
Length of Day
12h 11m
Tomorrow will be 2m 17s shorter.
Waning Crescent, 6% of the Moon is Illuminated
Today
Waning Crescent
Sep 24
New
Oct 1
First Quarter
Oct 8
Full
Oct 15
Last Quarter

Today's Extremes

State Highs State Lows

Community

WunderPhotos

Upload Photos

1,755,212 photos uploaded!

WunderBlogs® & News

Nearby

Snow Depth

Station Depth Elevation
Silver Creek Divide 1 in 9000 ft
Sierra Blanca 1 in 10280 ft
Signal Peak 0 in 8360 ft
Quemazon 1 in 9500 ft
Wesner Springs 3 in 11120 ft

Earthquake Activity

City Distance Mag. Time & Date
No recent earthquake activity has been reported nearby.
Minimum magnitude displayed is 2.5.

Coastal Water Temperatures

Place Temperature
No Stations Reporting

Nearby Weather Stations